Time;durP1;ratioP1;P1;durP2;ratioP2;P2;SDS_P1;SDS_P2;PMS_P1;PMS_P2;Temp;Humidity;BMP_temperature;BMP_pressure;BME280_temperature;BME280_humidity;BME280_pressure;Samples;Min_cycle;Max_cycle;Signal;HPM_P1;HPM_P2
2022/09/16 00:00:50;;;;;;;9.50;5.78;;;;;;;;;;5014414;28;20513;-69
2022/09/16 00:03:17;;;;;;;11.27;6.38;;;;;;;;;;5014304;28;20046;-70
2022/09/16 00:05:46;;;;;;;9.52;6.13;;;;;;;;;;4965058;28;20054;-69
2022/09/16 00:08:13;;;;;;;11.23;6.07;;;;;;;;;;4996827;28;20516;-69
2022/09/16 00:10:42;;;;;;;7.25;5.30;;;;;;;;;;4996247;28;20049;-70
2022/09/16 00:13:09;;;;;;;9.38;5.47;;;;;;;;;;4996530;28;20096;-69
2022/09/16 00:15:36;;;;;;;8.25;5.13;;;;;;;;;;4996685;28;20056;-70
2022/09/16 00:18:03;;;;;;;6.70;4.78;;;;;;;;;;5013317;28;20053;-70
2022/09/16 00:20:29;;;;;;;7.22;5.07;;;;;;;;;;5013316;28;20460;-70
2022/09/16 00:22:56;;;;;;;5.40;4.90;;;;;;;;;;5013457;28;20156;-70
2022/09/16 00:25:22;;;;;;;7.55;5.20;;;;;;;;;;5013544;28;20053;-70
2022/09/16 00:27:49;;;;;;;11.50;5.03;;;;;;;;;;5013331;28;20081;-70
2022/09/16 00:30:16;;;;;;;7.38;5.15;;;;;;;;;;5013054;28;20054;-70
2022/09/16 00:32:43;;;;;;;5.35;4.85;;;;;;;;;;5013199;28;20125;-70
2022/09/16 00:35:10;;;;;;;7.53;4.43;;;;;;;;;;5013335;28;20095;-69
2022/09/16 00:37:36;;;;;;;7.38;4.50;;;;;;;;;;5013241;28;20519;-69
2022/09/16 00:40:04;;;;;;;7.75;5.10;;;;;;;;;;4995617;28;20282;-69
2022/09/16 00:42:36;;;;;;;6.70;4.50;;;;;;;;;;5013260;28;20445;-70
2022/09/16 00:45:18;;;;;;;5.65;4.68;;;;;;;;;;4995707;28;20493;-70
2022/09/16 00:47:53;;;;;;;6.30;4.63;;;;;;;;;;4996464;28;20115;-70
2022/09/16 00:50:40;;;;;;;5.00;4.55;;;;;;;;;;4996107;28;20046;-70
2022/09/16 00:53:15;;;;;;;7.03;4.75;;;;;;;;;;4997245;28;20512;-70
2022/09/16 00:55:41;;;;;;;6.03;5.45;;;;;;;;;;5012956;28;20053;-70
2022/09/16 00:58:13;;;;;;;9.00;5.05;;;;;;;;;;4995123;28;20050;-69
2022/09/16 01:00:40;;;;;;;6.68;5.10;;;;;;;;;;4979658;28;20071;-69
2022/09/16 01:03:06;;;;;;;5.65;5.15;;;;;;;;;;5012599;28;20057;-70
2022/09/16 01:05:33;;;;;;;7.55;5.07;;;;;;;;;;5013195;28;20072;-70
2022/09/16 01:08:00;;;;;;;7.07;5.47;;;;;;;;;;4995072;28;20046;-70
2022/09/16 01:10:26;;;;;;;5.70;5.10;;;;;;;;;;4994813;28;20490;-69
2022/09/16 01:12:55;;;;;;;9.40;5.40;;;;;;;;;;5012640;28;20120;-69
2022/09/16 01:15:30;;;;;;;7.15;4.85;;;;;;;;;;4995371;28;20057;-70
2022/09/16 01:18:06;;;;;;;9.55;5.57;;;;;;;;;;4979667;28;20417;-70
2022/09/16 01:20:45;;;;;;;7.53;5.18;;;;;;;;;;4979087;28;20500;-70
2022/09/16 01:23:39;;;;;;;9.25;5.55;;;;;;;;;;5012736;28;20489;-69
2022/09/16 01:26:18;;;;;;;7.40;5.07;;;;;;;;;;4997587;28;20076;-70
2022/09/16 01:29:06;;;;;;;5.85;5.00;;;;;;;;;;5012402;28;20053;-69
2022/09/16 01:32:00;;;;;;;5.75;5.13;;;;;;;;;;5014681;28;20045;-70
2022/09/16 01:34:51;;;;;;;5.07;4.57;;;;;;;;;;5000814;28;20049;-69
2022/09/16 01:37:39;;;;;;;8.25;5.20;;;;;;;;;;5023955;28;20126;-70
2022/09/16 01:40:10;;;;;;;5.70;4.95;;;;;;;;;;5008670;28;20049;-69
2022/09/16 01:42:45;;;;;;;6.88;5.32;;;;;;;;;;5000170;28;20054;-70
2022/09/16 01:45:18;;;;;;;7.28;4.80;;;;;;;;;;4999487;28;20124;-70
2022/09/16 01:47:51;;;;;;;;;;;;;;;;;;4999850;28;20421;-69
2022/09/16 01:50:28;;;;;;;6.97;5.10;;;;;;;;;;5016113;28;19929;-70
2022/09/16 01:53:22;;;;;;;5.13;4.63;;;;;;;;;;4998633;28;20057;-70
2022/09/16 01:55:56;;;;;;;7.68;5.10;;;;;;;;;;5016178;28;20497;-70
2022/09/16 01:58:23;;;;;;;8.05;5.03;;;;;;;;;;4982901;28;20504;-70
2022/09/16 02:00:52;;;;;;;7.95;5.55;;;;;;;;;;5015812;28;20042;-69
2022/09/16 02:03:22;;;;;;;5.85;5.25;;;;;;;;;;4982479;28;20049;-69
2022/09/16 02:05:50;;;;;;;5.90;5.30;;;;;;;;;;4982756;28;20057;-70
2022/09/16 02:08:33;;;;;;;7.00;5.13;;;;;;;;;;4998280;28;20490;-70
2022/09/16 02:11:00;;;;;;;6.70;4.60;;;;;;;;;;4982464;28;20108;-69
2022/09/16 02:13:55;;;;;;;6.28;4.07;;;;;;;;;;4998264;28;20535;-69
2022/09/16 02:16:34;;;;;;;5.60;4.45;;;;;;;;;;5001151;28;20104;-69
2022/09/16 02:19:05;;;;;;;6.60;4.75;;;;;;;;;;4999315;28;20049;-69
2022/09/16 02:21:32;;;;;;;6.90;4.60;;;;;;;;;;4998529;28;20057;-69
2022/09/16 02:24:01;;;;;;;6.35;5.15;;;;;;;;;;4998260;28;20049;-70
2022/09/16 02:26:34;;;;;;;5.18;4.53;;;;;;;;;;4982044;28;20080;-70
2022/09/16 02:29:01;;;;;;;8.02;4.18;;;;;;;;;;5014994;28;20410;-69
2022/09/16 02:31:31;;;;;;;5.78;4.72;;;;;;;;;;4997944;28;20045;-70
2022/09/16 02:34:09;;;;;;;8.95;4.82;;;;;;;;;;5013916;28;20072;-70
2022/09/16 02:36:36;;;;;;;6.18;4.22;;;;;;;;;;5013996;28;20049;-70
2022/09/16 02:39:07;;;;;;;6.75;4.80;;;;;;;;;;5015055;28;20107;-69
2022/09/16 02:41:35;;;;;;;5.53;4.32;;;;;;;;;;4982290;28;20096;-69
2022/09/16 02:44:02;;;;;;;9.98;4.55;;;;;;;;;;4981681;28;20472;-70
2022/09/16 02:46:45;;;;;;;5.85;4.30;;;;;;;;;;4997929;28;20100;-69
2022/09/16 02:49:31;;;;;;;5.38;4.35;;;;;;;;;;5014902;28;20096;-70
2022/09/16 02:52:18;;;;;;;6.57;4.38;;;;;;;;;;4999563;28;20046;-70
2022/09/16 02:55:08;;;;;;;7.25;4.65;;;;;;;;;;5000119;28;20463;-70
2022/09/16 02:57:35;;;;;;;6.90;4.18;;;;;;;;;;5000437;28;20086;-70
2022/09/16 03:00:02;;;;;;;8.85;4.68;;;;;;;;;;5014789;28;20104;-70
2022/09/16 03:02:33;;;;;;;7.68;4.18;;;;;;;;;;4965434;28;20486;-70
2022/09/16 03:05:00;;;;;;;7.72;3.83;;;;;;;;;;4997905;28;20054;-70
2022/09/16 03:07:27;;;;;;;6.03;3.90;;;;;;;;;;5014708;28;20078;-70
2022/09/16 03:09:54;;;;;;;4.40;3.97;;;;;;;;;;4997227;28;20505;-70
2022/09/16 03:12:37;;;;;;;6.78;4.05;;;;;;;;;;5014466;28;20045;-70
2022/09/16 03:15:03;;;;;;;;;;;;;;;;;;4997470;28;20457;-70
2022/09/16 03:18:16;;;;;;;5.57;3.83;;;;;;;;;;5014494;28;19926;-70
2022/09/16 03:20:54;;;;;;;5.72;3.65;;;;;;;;;;4999915;28;20099;-70
2022/09/16 03:23:43;;;;;;;4.97;4.13;;;;;;;;;;4999127;28;20061;-70
2022/09/16 03:26:21;;;;;;;8.85;3.88;;;;;;;;;;4998366;28;20081;-70
2022/09/16 03:29:11;;;;;;;8.98;4.45;;;;;;;;;;4996795;28;20053;-70
2022/09/16 03:31:51;;;;;;;5.45;4.22;;;;;;;;;;4996924;28;20049;-69
2022/09/16 03:34:33;;;;;;;5.75;4.30;;;;;;;;;;5014144;28;20046;-69
2022/09/16 03:37:02;;;;;;;4.15;3.45;;;;;;;;;;5014547;28;20107;-69
2022/09/16 03:39:29;;;;;;;6.95;4.03;;;;;;;;;;4980564;28;20050;-69
2022/09/16 03:42:02;;;;;;;9.60;4.63;;;;;;;;;;4996591;28;20457;-70
2022/09/16 03:44:33;;;;;;;5.60;3.83;;;;;;;;;;4997580;28;20326;-70
2022/09/16 03:47:01;;;;;;;5.20;4.07;;;;;;;;;;5013937;28;20057;-70
2022/09/16 03:49:29;;;;;;;5.63;3.75;;;;;;;;;;4996753;28;20081;-70
2022/09/16 03:51:56;;;;;;;9.73;4.00;;;;;;;;;;5013764;28;20068;-70
2022/09/16 03:54:23;;;;;;;5.82;4.00;;;;;;;;;;5014031;28;20191;-70
2022/09/16 03:56:49;;;;;;;5.88;4.05;;;;;;;;;;5013768;28;20061;-70
2022/09/16 03:59:16;;;;;;;6.40;3.80;;;;;;;;;;5013462;28;20050;-70
2022/09/16 04:01:44;;;;;;;4.40;4.00;;;;;;;;;;5013742;28;20096;-69
2022/09/16 04:04:11;;;;;;;5.30;3.50;;;;;;;;;;5013196;28;20057;-70
2022/09/16 04:06:38;;;;;;;5.65;4.28;;;;;;;;;;5013710;28;20050;-70
2022/09/16 04:09:05;;;;;;;5.35;3.65;;;;;;;;;;5013595;28;20057;-70
2022/09/16 04:11:33;;;;;;;6.38;3.65;;;;;;;;;;5013511;28;20096;-70
2022/09/16 04:14:00;;;;;;;6.38;3.85;;;;;;;;;;5028450;28;20049;-69
2022/09/16 04:16:27;;;;;;;4.75;3.30;;;;;;;;;;5029641;28;20049;-69
2022/09/16 04:18:53;;;;;;;5.43;4.03;;;;;;;;;;5010764;28;20096;-69
2022/09/16 04:21:20;;;;;;;5.57;3.80;;;;;;;;;;5028041;28;20046;-69
2022/09/16 04:23:47;;;;;;;5.32;3.50;;;;;;;;;;5027905;28;20046;-69
2022/09/16 04:26:14;;;;;;;5.85;3.83;;;;;;;;;;5007097;28;20072;-69
2022/09/16 04:28:41;;;;;;;5.85;3.28;;;;;;;;;;5015883;28;20459;-70
2022/09/16 04:31:10;;;;;;;5.40;3.72;;;;;;;;;;5013162;28;20393;-70
2022/09/16 04:33:37;;;;;;;7.20;3.90;;;;;;;;;;5013619;28;20096;-70
2022/09/16 04:36:07;;;;;;;4.72;3.38;;;;;;;;;;5013456;28;20058;-70
2022/09/16 04:38:34;;;;;;;5.88;3.17;;;;;;;;;;5012719;28;20123;-70
2022/09/16 04:41:05;;;;;;;5.03;3.83;;;;;;;;;;5012991;28;20053;-70
2022/09/16 04:43:32;;;;;;;5.45;3.58;;;;;;;;;;5022423;28;20049;-69
2022/09/16 04:45:59;;;;;;;6.18;3.40;;;;;;;;;;5026554;28;20073;-69
2022/09/16 04:48:26;;;;;;;5.20;3.30;;;;;;;;;;5027972;28;20054;-69
2022/09/16 04:50:52;;;;;;;4.18;3.30;;;;;;;;;;5029459;28;20049;-70
2022/09/16 04:53:20;;;;;;;4.35;3.80;;;;;;;;;;5008773;28;20054;-69
2022/09/16 04:55:47;;;;;;;7.10;4.25;;;;;;;;;;5025364;28;20054;-69
2022/09/16 04:58:13;;;;;;;5.25;3.53;;;;;;;;;;5024607;28;20069;-70
2022/09/16 05:00:40;;;;;;;5.25;3.67;;;;;;;;;;5025342;28;20045;-69
2022/09/16 05:03:07;;;;;;;5.60;3.30;;;;;;;;;;5023958;28;20081;-69
2022/09/16 05:05:33;;;;;;;4.90;3.50;;;;;;;;;;5026108;28;20109;-69
2022/09/16 05:08:00;;;;;;;6.97;3.58;;;;;;;;;;5031403;28;20054;-69
2022/09/16 05:10:27;;;;;;;4.97;3.80;;;;;;;;;;5029298;28;20076;-69
2022/09/16 05:12:54;;;;;;;6.65;3.60;;;;;;;;;;5018679;28;20053;-69
2022/09/16 05:15:20;;;;;;;4.72;3.88;;;;;;;;;;5012632;28;20104;-70
2022/09/16 05:17:47;;;;;;;4.90;3.90;;;;;;;;;;5012431;28;20108;-70
2022/09/16 05:20:17;;;;;;;8.65;4.45;;;;;;;;;;5012526;28;20057;-70
2022/09/16 05:22:43;;;;;;;6.88;4.10;;;;;;;;;;5012266;28;20046;-70
2022/09/16 05:25:10;;;;;;;8.93;4.43;;;;;;;;;;5012685;28;20100;-70
2022/09/16 05:27:37;;;;;;;5.65;4.07;;;;;;;;;;5012700;28;20050;-70
2022/09/16 05:30:04;;;;;;;5.35;4.18;;;;;;;;;;5012202;28;20045;-70
2022/09/16 05:32:31;;;;;;;7.53;4.18;;;;;;;;;;5012491;28;20103;-70
2022/09/16 05:34:58;;;;;;;5.78;4.05;;;;;;;;;;5012483;28;20046;-70
2022/09/16 05:37:25;;;;;;;7.90;4.45;;;;;;;;;;5012695;28;20053;-69
2022/09/16 05:39:51;;;;;;;6.68;3.72;;;;;;;;;;5012457;28;20046;-70
2022/09/16 05:42:18;;;;;;;4.40;3.80;;;;;;;;;;5012042;28;20558;-70
2022/09/16 05:44:45;;;;;;;3.85;3.53;;;;;;;;;;5025930;28;20034;-69
2022/09/16 05:47:11;;;;;;;4.30;3.80;;;;;;;;;;5026011;28;20053;-70
2022/09/16 05:49:38;;;;;;;7.50;4.05;;;;;;;;;;5024387;28;20057;-69
2022/09/16 05:52:04;;;;;;;6.88;4.60;;;;;;;;;;5024758;28;20046;-69
2022/09/16 05:54:31;;;;;;;5.50;4.13;;;;;;;;;;5021328;28;20053;-69
2022/09/16 05:56:58;;;;;;;5.03;4.10;;;;;;;;;;5022395;28;20501;-69
2022/09/16 05:59:30;;;;;;;7.38;4.05;;;;;;;;;;5005402;28;20050;-69
2022/09/16 06:01:56;;;;;;;5.38;4.00;;;;;;;;;;5020873;28;20050;-69
2022/09/16 06:04:23;;;;;;;7.53;3.92;;;;;;;;;;5023363;28;20061;-69
2022/09/16 06:06:49;;;;;;;8.32;4.22;;;;;;;;;;5023529;28;20050;-69
2022/09/16 06:09:19;;;;;;;6.55;4.28;;;;;;;;;;5023254;28;20053;-68
2022/09/16 06:11:47;;;;;;;7.72;3.97;;;;;;;;;;5023752;28;20050;-69
2022/09/16 06:14:14;;;;;;;6.07;4.57;;;;;;;;;;5004984;28;20077;-69
2022/09/16 06:16:41;;;;;;;9.65;5.50;;;;;;;;;;5018514;28;20046;-69
2022/09/16 06:19:13;;;;;;;10.02;4.40;;;;;;;;;;5011753;28;20053;-69
2022/09/16 06:21:42;;;;;;;6.70;4.77;;;;;;;;;;5011913;28;20096;-69
2022/09/16 06:24:09;;;;;;;7.25;4.97;;;;;;;;;;5012065;28;20335;-69
2022/09/16 06:26:37;;;;;;;12.65;5.15;;;;;;;;;;5012075;28;20089;-69
2022/09/16 06:29:05;;;;;;;8.45;4.78;;;;;;;;;;5015076;28;20420;-69
2022/09/16 06:31:32;;;;;;;7.30;4.65;;;;;;;;;;5015418;28;20046;-69
2022/09/16 06:33:59;;;;;;;9.40;5.15;;;;;;;;;;5015431;28;20088;-69
2022/09/16 06:36:33;;;;;;;11.18;5.50;;;;;;;;;;5015414;28;20096;-69
2022/09/16 06:39:00;;;;;;;9.82;5.53;;;;;;;;;;5015144;28;20049;-69
2022/09/16 06:41:26;;;;;;;9.70;5.72;;;;;;;;;;5015576;28;20049;-69
2022/09/16 06:43:53;;;;;;;8.30;5.78;;;;;;;;;;5014864;28;20608;-69
2022/09/16 06:46:22;;;;;;;8.45;5.47;;;;;;;;;;5015239;28;20050;-70
2022/09/16 06:48:51;;;;;;;10.20;5.65;;;;;;;;;;5014922;28;20081;-70
2022/09/16 06:51:21;;;;;;;8.27;5.78;;;;;;;;;;5015652;28;20050;-70
2022/09/16 06:53:49;;;;;;;7.53;5.70;;;;;;;;;;4997897;28;20145;-70
2022/09/16 06:56:17;;;;;;;10.45;6.18;;;;;;;;;;5018673;28;20053;-70
2022/09/16 06:58:48;;;;;;;10.45;5.07;;;;;;;;;;5018520;28;20058;-70
2022/09/16 07:01:16;;;;;;;6.72;4.10;;;;;;;;;;5015485;28;20084;-70
2022/09/16 07:03:45;;;;;;;9.00;4.60;;;;;;;;;;5015205;28;20049;-70
2022/09/16 07:06:13;;;;;;;8.07;4.38;;;;;;;;;;5015099;28;20057;-70
2022/09/16 07:08:40;;;;;;;8.35;3.75;;;;;;;;;;5014717;28;20054;-69
2022/09/16 07:11:15;;;;;;;4.75;3.70;;;;;;;;;;5015359;28;20050;-68
2022/09/16 07:13:42;;;;;;;7.20;3.65;;;;;;;;;;4983282;28;20100;-69
2022/09/16 07:16:10;;;;;;;10.45;3.75;;;;;;;;;;5014913;28;20053;-70
2022/09/16 07:18:39;;;;;;;8.55;4.55;;;;;;;;;;5013310;28;20103;-69
2022/09/16 07:21:14;;;;;;;6.97;3.15;;;;;;;;;;5014807;28;20120;-70
2022/09/16 07:23:41;;;;;;;4.32;2.60;;;;;;;;;;5014483;28;20104;-69
2022/09/16 07:26:18;;;;;;;5.32;2.50;;;;;;;;;;5014362;28;20505;-69
2022/09/16 07:28:46;;;;;;;3.50;2.20;;;;;;;;;;5015154;28;20112;-70
2022/09/16 07:31:17;;;;;;;7.78;2.92;;;;;;;;;;5014517;28;20056;-71
2022/09/16 07:33:47;;;;;;;6.88;3.70;;;;;;;;;;5014078;28;20085;-70
2022/09/16 07:36:15;;;;;;;6.15;2.67;;;;;;;;;;5014726;28;20045;-71
2022/09/16 07:38:42;;;;;;;4.65;2.40;;;;;;;;;;5012966;28;20104;-71
2022/09/16 07:41:17;;;;;;;5.05;2.50;;;;;;;;;;4996958;28;20497;-71
2022/09/16 07:43:44;;;;;;;6.75;2.88;;;;;;;;;;5013947;28;20045;-70
2022/09/16 07:46:12;;;;;;;9.40;2.97;;;;;;;;;;5014099;28;20054;-71
2022/09/16 07:48:38;;;;;;;8.10;3.50;;;;;;;;;;5014100;28;20151;-71
2022/09/16 07:51:07;;;;;;;7.43;3.13;;;;;;;;;;5014944;28;20397;-70
2022/09/16 07:53:34;;;;;;;5.38;3.10;;;;;;;;;;5014412;28;20054;-70
2022/09/16 07:56:03;;;;;;;6.88;3.10;;;;;;;;;;5019642;28;20428;-71
2022/09/16 07:58:29;;;;;;;5.07;3.20;;;;;;;;;;5019516;28;20104;-71
2022/09/16 08:00:56;;;;;;;8.23;4.43;;;;;;;;;;5016085;28;20058;-71
2022/09/16 08:03:28;;;;;;;4.18;2.67;;;;;;;;;;5014163;28;20497;-71
2022/09/16 08:06:06;;;;;;;5.18;3.13;;;;;;;;;;5013711;28;20053;-71
2022/09/16 08:08:33;;;;;;;12.18;7.50;;;;;;;;;;5013611;28;20310;-70
2022/09/16 08:11:00;;;;;;;13.70;8.73;;;;;;;;;;5013400;28;20100;-70
2022/09/16 08:13:29;;;;;;;9.70;6.35;;;;;;;;;;5013289;28;20517;-70
2022/09/16 08:15:59;;;;;;;8.98;4.88;;;;;;;;;;4996246;28;20065;-70
2022/09/16 08:18:26;;;;;;;8.18;3.92;;;;;;;;;;5013029;28;20072;-70
2022/09/16 08:20:53;;;;;;;10.00;3.60;;;;;;;;;;5013569;28;20460;-70
2022/09/16 08:23:19;;;;;;;8.70;5.15;;;;;;;;;;5016366;28;20099;-70
2022/09/16 08:25:46;;;;;;;4.55;3.83;;;;;;;;;;5013490;28;20089;-70
2022/09/16 08:28:13;;;;;;;6.55;3.92;;;;;;;;;;5013092;28;20054;-70
2022/09/16 08:30:41;;;;;;;7.97;4.00;;;;;;;;;;5013279;28;20053;-70
2022/09/16 08:33:08;;;;;;;7.97;4.20;;;;;;;;;;5013117;28;20088;-70
2022/09/16 08:35:35;;;;;;;7.63;4.70;;;;;;;;;;5013194;28;20045;-70
2022/09/16 08:38:02;;;;;;;7.05;4.82;;;;;;;;;;5013035;28;20045;-70
2022/09/16 08:40:32;;;;;;;9.52;4.82;;;;;;;;;;4995553;28;20054;-70
2022/09/16 08:43:09;;;;;;;8.75;4.32;;;;;;;;;;4995806;28;20103;-70
2022/09/16 08:46:17;;;;;;;6.47;4.55;;;;;;;;;;4980300;28;20068;-71
2022/09/16 08:49:06;;;;;;;6.47;5.30;;;;;;;;;;4999780;28;20050;-70
2022/09/16 08:51:32;;;;;;;7.47;5.63;;;;;;;;;;4995349;28;20042;-69
2022/09/16 08:54:26;;;;;;;6.80;4.88;;;;;;;;;;5012684;28;20093;-69
2022/09/16 08:56:58;;;;;;;6.18;4.47;;;;;;;;;;4990252;28;20050;-69
2022/09/16 08:59:27;;;;;;;6.53;4.93;;;;;;;;;;5011240;28;20046;-69
2022/09/16 09:02:30;;;;;;;7.45;4.90;;;;;;;;;;4995232;28;20050;-69
2022/09/16 09:04:58;;;;;;;5.93;4.97;;;;;;;;;;5010312;28;20476;-69
2022/09/16 09:07:45;;;;;;;6.15;5.07;;;;;;;;;;4995482;28;20053;-69
2022/09/16 09:10:17;;;;;;;7.80;4.65;;;;;;;;;;4995598;28;20402;-69
2022/09/16 09:12:49;;;;;;;7.53;5.22;;;;;;;;;;5012669;28;20057;-69
2022/09/16 09:15:27;;;;;;;;;;;;;;;;;;5012883;28;20053;-69
2022/09/16 09:17:56;;;;;;;9.80;5.18;;;;;;;;;;5012248;28;19945;-69
2022/09/16 09:20:55;;;;;;;12.05;5.35;;;;;;;;;;5012957;28;20108;-69
2022/09/16 09:23:58;;;;;;;9.25;5.35;;;;;;;;;;4960816;28;20050;-69
2022/09/16 09:26:51;;;;;;;9.55;5.60;;;;;;;;;;4995228;28;20049;-69
2022/09/16 09:29:42;;;;;;;7.00;4.90;;;;;;;;;;5013207;28;20050;-70
2022/09/16 09:32:45;;;;;;;5.80;5.13;;;;;;;;;;5013095;28;20108;-70
2022/09/16 09:35:24;;;;;;;8.68;5.43;;;;;;;;;;4997716;28;20046;-69
2022/09/16 09:37:56;;;;;;;8.50;5.22;;;;;;;;;;5012812;28;20050;-70
2022/09/16 09:40:35;;;;;;;10.30;5.60;;;;;;;;;;5012514;28;20501;-70
2022/09/16 09:43:31;;;;;;;9.65;5.88;;;;;;;;;;4994685;28;20041;-70
2022/09/16 09:46:17;;;;;;;10.60;5.90;;;;;;;;;;4997201;28;20081;-70
2022/09/16 09:49:05;;;;;;;10.85;5.45;;;;;;;;;;4994583;28;20505;-70
2022/09/16 09:51:36;;;;;;;9.10;5.80;;;;;;;;;;4997761;28;20050;-70
2022/09/16 09:54:18;;;;;;;8.60;5.38;;;;;;;;;;5010629;28;20068;-70
2022/09/16 09:56:45;;;;;;;11.70;6.07;;;;;;;;;;4994962;28;20460;-69
2022/09/16 09:59:20;;;;;;;7.22;4.93;;;;;;;;;;4994923;28;20057;-70
2022/09/16 10:01:52;;;;;;;10.65;4.88;;;;;;;;;;5019943;28;20061;-69
2022/09/16 10:04:19;;;;;;;8.25;4.72;;;;;;;;;;5022066;28;20497;-69
2022/09/16 10:06:46;;;;;;;7.60;4.65;;;;;;;;;;5015252;28;20109;-69
2022/09/16 10:09:13;;;;;;;5.63;4.20;;;;;;;;;;4998311;28;20057;-69
2022/09/16 10:11:47;;;;;;;6.43;4.30;;;;;;;;;;4982624;28;20050;-69
2022/09/16 10:14:24;;;;;;;8.43;4.10;;;;;;;;;;5015762;28;20571;-69
2022/09/16 10:16:52;;;;;;;6.68;4.05;;;;;;;;;;5015799;28;20046;-69
2022/09/16 10:19:24;;;;;;;8.13;3.83;;;;;;;;;;5015586;28;20493;-69
2022/09/16 10:22:07;;;;;;;8.47;4.93;;;;;;;;;;4998372;28;20534;-69
2022/09/16 10:24:43;;;;;;;7.47;4.57;;;;;;;;;;5000268;28;20072;-69
2022/09/16 10:27:28;;;;;;;8.55;3.90;;;;;;;;;;5015677;28;20053;-69
2022/09/16 10:30:16;;;;;;;7.40;4.55;;;;;;;;;;5015497;28;20054;-69
2022/09/16 10:32:47;;;;;;;6.50;4.38;;;;;;;;;;5015526;28;20095;-69
2022/09/16 10:35:25;;;;;;;8.32;4.57;;;;;;;;;;5015775;28;20119;-69
2022/09/16 10:37:56;;;;;;;7.82;3.75;;;;;;;;;;4998564;28;20089;-69
2022/09/16 10:40:23;;;;;;;6.38;3.88;;;;;;;;;;5015495;28;20085;-69
2022/09/16 10:42:56;;;;;;;6.80;3.83;;;;;;;;;;5015491;28;20100;-69
2022/09/16 10:45:27;;;;;;;6.40;3.63;;;;;;;;;;4998427;28;20049;-69
2022/09/16 10:47:59;;;;;;;8.05;4.03;;;;;;;;;;4981874;28;20421;-69
2022/09/16 10:50:31;;;;;;;5.10;3.63;;;;;;;;;;5015503;28;20084;-70
2022/09/16 10:52:58;;;;;;;6.25;3.22;;;;;;;;;;5014865;28;20049;-69
2022/09/16 10:55:27;;;;;;;5.18;3.17;;;;;;;;;;5015091;28;20073;-69
2022/09/16 10:58:06;;;;;;;6.40;3.63;;;;;;;;;;5014768;28;20046;-69
2022/09/16 11:00:39;;;;;;;4.53;3.05;;;;;;;;;;5014978;28;20097;-70
2022/09/16 11:03:35;;;;;;;5.45;3.40;;;;;;;;;;4998451;28;20053;-69
2022/09/16 11:06:17;;;;;;;3.53;2.85;;;;;;;;;;5014750;28;20104;-69
2022/09/16 11:08:48;;;;;;;6.60;3.17;;;;;;;;;;5014960;28;20465;-69
2022/09/16 11:11:36;;;;;;;6.15;2.90;;;;;;;;;;4997935;28;20571;-70
2022/09/16 11:14:15;;;;;;;5.03;2.80;;;;;;;;;;5014819;28;20141;-71
2022/09/16 11:17:29;;;;;;;9.23;3.35;;;;;;;;;;5014476;28;20501;-69
2022/09/16 11:20:23;;;;;;;2.97;2.35;;;;;;;;;;4968923;28;20111;-70
2022/09/16 11:23:13;;;;;;;4.70;3.00;;;;;;;;;;5014463;28;20071;-69
2022/09/16 11:25:55;;;;;;;3.55;2.85;;;;;;;;;;4967699;28;20057;-69
2022/09/16 11:28:46;;;;;;;7.13;2.95;;;;;;;;;;5014587;28;20115;-70
2022/09/16 11:31:40;;;;;;;5.93;3.03;;;;;;;;;;5014437;28;20097;-70
2022/09/16 11:34:30;;;;;;;5.68;2.67;;;;;;;;;;5014567;28;20056;-69
2022/09/16 11:37:12;;;;;;;5.63;3.03;;;;;;;;;;4997193;28;20054;-69
2022/09/16 11:40:06;;;;;;;4.67;2.40;;;;;;;;;;5013803;28;20110;-69
2022/09/16 11:42:49;;;;;;;7.38;2.78;;;;;;;;;;5014062;28;20057;-69
2022/09/16 11:45:23;;;;;;;5.60;2.30;;;;;;;;;;4999104;28;20524;-69
2022/09/16 11:47:59;;;;;;;4.13;2.80;;;;;;;;;;4996562;28;20497;-69
2022/09/16 11:50:47;;;;;;;4.78;2.22;;;;;;;;;;4997184;28;20050;-69
2022/09/16 11:53:22;;;;;;;4.95;2.45;;;;;;;;;;5014691;28;20054;-70
2022/09/16 11:56:01;;;;;;;5.40;2.75;;;;;;;;;;5014194;28;20147;-70
2022/09/16 11:58:34;;;;;;;4.93;2.40;;;;;;;;;;5014037;28;20057;-70
2022/09/16 12:01:38;;;;;;;2.47;1.90;;;;;;;;;;5013891;28;20080;-70
2022/09/16 12:04:26;;;;;;;2.78;1.70;;;;;;;;;;4948453;28;20061;-70
2022/09/16 12:07:13;;;;;;;2.17;1.48;;;;;;;;;;4998960;28;20468;-70
2022/09/16 12:09:55;;;;;;;4.07;1.58;;;;;;;;;;4996214;28;20054;-70
2022/09/16 12:12:25;;;;;;;3.58;1.60;;;;;;;;;;4996767;28;20559;-70
2022/09/16 12:15:14;;;;;;;4.47;1.67;;;;;;;;;;4980205;28;20088;-70
2022/09/16 12:17:43;;;;;;;3.15;1.20;;;;;;;;;;5012913;28;20104;-70
2022/09/16 12:20:21;;;;;;;1.83;1.25;;;;;;;;;;4980111;28;20049;-70
2022/09/16 12:22:50;;;;;;;2.33;1.15;;;;;;;;;;4997294;28;20046;-70
2022/09/16 12:25:26;;;;;;;3.90;1.60;;;;;;;;;;4979525;28;20095;-70
2022/09/16 12:27:59;;;;;;;4.38;1.60;;;;;;;;;;5013804;28;20468;-70
2022/09/16 12:30:36;;;;;;;2.70;1.30;;;;;;;;;;4997131;28;20088;-70
2022/09/16 12:33:18;;;;;;;2.30;1.50;;;;;;;;;;5012551;28;20489;-70
2022/09/16 12:35:57;;;;;;;4.88;1.23;;;;;;;;;;4996079;28;20050;-70
2022/09/16 12:38:24;;;;;;;1.30;1.05;;;;;;;;;;4996874;28;20081;-70
2022/09/16 12:41:10;;;;;;;2.42;1.02;;;;;;;;;;4995927;28;20053;-70
2022/09/16 12:44:11;;;;;;;3.90;1.15;;;;;;;;;;4997647;28;20050;-70
2022/09/16 12:47:19;;;;;;;2.38;1.30;;;;;;;;;;5013398;28;20057;-70
2022/09/16 12:49:59;;;;;;;2.17;1.13;;;;;;;;;;5013103;28;20110;-70
2022/09/16 12:52:44;;;;;;;3.70;1.05;;;;;;;;;;4995825;28;20104;-70
2022/09/16 12:55:46;;;;;;;1.98;1.05;;;;;;;;;;4996759;28;20516;-70
2022/09/16 12:58:43;;;;;;;3.40;1.30;;;;;;;;;;5012914;28;20045;-70
2022/09/16 13:01:16;;;;;;;3.78;1.35;;;;;;;;;;5013121;28;20045;-70
2022/09/16 13:03:46;;;;;;;3.40;1.17;;;;;;;;;;5013182;28;20050;-70
2022/09/16 13:06:31;;;;;;;2.60;1.10;;;;;;;;;;4980226;28;20054;-70
2022/09/16 13:09:11;;;;;;;3.10;1.00;;;;;;;;;;4995589;28;20554;-70
2022/09/16 13:11:38;;;;;;;3.40;1.60;;;;;;;;;;4982349;28;20054;-69
2022/09/16 13:14:47;;;;;;;3.55;1.45;;;;;;;;;;4998724;28;20460;-69
2022/09/16 13:17:13;;;;;;;3.25;1.20;;;;;;;;;;5012969;28;20049;-69
2022/09/16 13:19:40;;;;;;;4.38;1.67;;;;;;;;;;4995730;28;20054;-70
2022/09/16 13:22:40;;;;;;;3.92;1.20;;;;;;;;;;5012625;28;20057;-70
2022/09/16 13:25:29;;;;;;;1.48;1.00;;;;;;;;;;4976045;28;20057;-69
2022/09/16 13:28:24;;;;;;;1.17;1.08;;;;;;;;;;4998243;28;20119;-70
2022/09/16 13:30:51;;;;;;;1.65;1.10;;;;;;;;;;4995263;28;20069;-70
2022/09/16 13:33:18;;;;;;;4.68;1.08;;;;;;;;;;5012867;28;20042;-70
2022/09/16 13:35:48;;;;;;;4.88;1.15;;;;;;;;;;5012481;28;20116;-69
2022/09/16 13:38:17;;;;;;;3.40;1.00;;;;;;;;;;5015245;28;20061;-69
2022/09/16 13:40:58;;;;;;;3.55;1.00;;;;;;;;;;5016460;28;20045;-69
2022/09/16 13:43:40;;;;;;;2.95;1.05;;;;;;;;;;5016268;28;20053;-69
2022/09/16 13:46:09;;;;;;;4.28;1.17;;;;;;;;;;5016507;28;20050;-70
2022/09/16 13:48:42;;;;;;;5.57;1.65;;;;;;;;;;5016125;28;20454;-70
2022/09/16 13:51:14;;;;;;;2.80;1.50;;;;;;;;;;5015513;28;20230;-70
2022/09/16 13:53:46;;;;;;;2.33;1.13;;;;;;;;;;5015141;28;20099;-70
2022/09/16 13:56:13;;;;;;;3.53;1.30;;;;;;;;;;4999273;28;20050;-70
2022/09/16 13:59:04;;;;;;;3.20;1.27;;;;;;;;;;5016192;28;20049;-69
2022/09/16 14:01:38;;;;;;;3.33;1.27;;;;;;;;;;5001428;28;20060;-70
2022/09/16 14:04:40;;;;;;;1.52;1.10;;;;;;;;;;5016042;28;20512;-70
2022/09/16 14:07:36;;;;;;;2.08;0.93;;;;;;;;;;5016057;28;20061;-70
2022/09/16 14:10:12;;;;;;;3.55;1.20;;;;;;;;;;5015842;28;20046;-70
2022/09/16 14:13:00;;;;;;;3.05;1.58;;;;;;;;;;5016052;28;20054;-70
2022/09/16 14:15:26;;;;;;;1.65;1.13;;;;;;;;;;5016117;28;20069;-70
2022/09/16 14:17:57;;;;;;;5.03;1.48;;;;;;;;;;5016101;28;20104;-70
2022/09/16 14:20:23;;;;;;;3.10;1.00;;;;;;;;;;4999285;28;20058;-70
2022/09/16 14:23:21;;;;;;;2.72;1.25;;;;;;;;;;4982524;28;20497;-70
2022/09/16 14:25:48;;;;;;;4.53;1.38;;;;;;;;;;5016392;28;20057;-70
2022/09/16 14:28:20;;;;;;;2.85;1.30;;;;;;;;;;4999332;28;20552;-70
2022/09/16 14:30:54;;;;;;;5.70;1.27;;;;;;;;;;5015988;28;20050;-70
2022/09/16 14:33:40;;;;;;;3.42;1.20;;;;;;;;;;4999025;28;20046;-70
2022/09/16 14:36:13;;;;;;;3.13;1.40;;;;;;;;;;4998040;28;20045;-70
2022/09/16 14:38:42;;;;;;;4.95;1.65;;;;;;;;;;4982199;28;20081;-70
2022/09/16 14:41:40;;;;;;;2.15;1.20;;;;;;;;;;5001467;28;20140;-70
2022/09/16 14:44:11;;;;;;;2.28;1.10;;;;;;;;;;5015534;28;20464;-70
2022/09/16 14:46:42;;;;;;;5.20;1.55;;;;;;;;;;4998067;28;20049;-70
2022/09/16 14:49:10;;;;;;;2.97;1.00;;;;;;;;;;4997293;28;20080;-70
2022/09/16 14:51:37;;;;;;;3.60;2.05;;;;;;;;;;4998171;28;20050;-70
2022/09/16 14:54:03;;;;;;;2.03;1.10;;;;;;;;;;4965722;28;20092;-70
2022/09/16 14:56:38;;;;;;;2.65;1.10;;;;;;;;;;5015199;28;20093;-70
2022/09/16 14:59:10;;;;;;;3.75;1.23;;;;;;;;;;5013765;28;20108;-70
2022/09/16 15:01:37;;;;;;;4.97;1.05;;;;;;;;;;4998379;28;20057;-70
2022/09/16 15:04:08;;;;;;;2.45;1.10;;;;;;;;;;4981596;28;20050;-70
2022/09/16 15:06:40;;;;;;;4.15;1.45;;;;;;;;;;4998023;28;20050;-70
2022/09/16 15:09:20;;;;;;;3.60;1.23;;;;;;;;;;5013535;28;20498;-70
2022/09/16 15:11:49;;;;;;;2.50;0.90;;;;;;;;;;4997242;28;20050;-70
2022/09/16 15:14:16;;;;;;;3.78;1.48;;;;;;;;;;4997645;28;20050;-69
2022/09/16 15:17:05;;;;;;;3.70;1.40;;;;;;;;;;4981486;28;20107;-70
2022/09/16 15:19:36;;;;;;;2.40;1.45;;;;;;;;;;5014786;28;20050;-70
2022/09/16 15:22:03;;;;;;;3.28;1.05;;;;;;;;;;5013798;28;20093;-70
2022/09/16 15:24:31;;;;;;;2.15;1.20;;;;;;;;;;4981542;28;20100;-70